Aviation Digital Data Service (ADDS)

Output produced by TAFs form (1556 UTC 15 December 2017)
found at http://aviationweather.gov/adds/tafs/
 
KCNY 151120Z 1512/1612 VRB03KT P6SM FEW250